Main page
METAR-TAF:

METAR-TAF

Airports :

Nome Airport

Nome, Alaska, United States

latitude: 64-30-43N, longitude: 165-26-42W, elevation: 36 ft

Current weather observation

The report was made 56 minutes ago, at 12:53 UTC
Wind 3 mph from the West/Northwest
Temperature 48°F
Humidity 87%
Pressure 30.14 in. Hg
Visibility: 10 miles
Clear sky

METAR: PAOM 221253Z 29003KT 10SM CLR 09/07 A3014 RMK AO2 SLP207 T00940072 $

Time: 05:49 (13:49 UTC)

Forecast

The report was made 2 hours and 17 minutes ago, at 11:32 UTC
Forecast valid from 22 at 12 UTC to 23 at 12 UTC
Wind 3 mph from the North
Visibility: 6 miles
Scattered clouds at a height of 20000 ft
From 22 at 2200 UTC
Wind 9 mph from the West/Southwest
Visibility: 6 miles
Scattered clouds at a height of 20000 ft

TAF: PAOM 221132Z 2212/2312 36003KT P6SM SCT200 FM222200 24008KT P6SM SCT200

Weather observations and forecasts of more than 4000 airports (METAR and TAF reports).

The available stations are represented by yellow and red dots on the map.

Hover mouse over dot to see the name of the station.

Then click to see weather observations and forecasts.

To change the map : click on the green buttons with a black cross to zoom in, on the green button with a dash to zoom out, or on the green arrows for adjacent maps.


METAR-TAF: